sensor_id;sensor_type;location;lat;lon;timestamp;temperature;humidity
29501;DHT22;16450;50.288;10.966;2024-03-08T00:00:38;1.10;99.90
29501;DHT22;16450;50.288;10.966;2024-03-08T00:03:42;1.00;99.90
29501;DHT22;16450;50.288;10.966;2024-03-08T00:06:44;0.90;99.90
29501;DHT22;16450;50.288;10.966;2024-03-08T00:09:47;0.90;99.90
29501;DHT22;16450;50.288;10.966;2024-03-08T00:12:49;0.90;99.90
29501;DHT22;16450;50.288;10.966;2024-03-08T00:15:52;0.80;99.90
29501;DHT22;16450;50.288;10.966;2024-03-08T00:18:54;0.80;99.90
29501;DHT22;16450;50.288;10.966;2024-03-08T00:21:56;0.80;99.90
29501;DHT22;16450;50.288;10.966;2024-03-08T00:24:58;0.70;99.90
29501;DHT22;16450;50.288;10.966;2024-03-08T00:27:59;0.70;99.90
29501;DHT22;16450;50.288;10.966;2024-03-08T00:31:01;0.70;99.90
29501;DHT22;16450;50.288;10.966;2024-03-08T00:34:03;0.60;99.90
29501;DHT22;16450;50.288;10.966;2024-03-08T00:37:05;0.60;99.90
29501;DHT22;16450;50.288;10.966;2024-03-08T00:40:08;0.60;99.90
29501;DHT22;16450;50.288;10.966;2024-03-08T00:43:11;0.50;99.90
29501;DHT22;16450;50.288;10.966;2024-03-08T00:46:13;0.50;99.90
29501;DHT22;16450;50.288;10.966;2024-03-08T00:49:16;0.60;99.90
29501;DHT22;16450;50.288;10.966;2024-03-08T00:52:18;0.40;99.90
29501;DHT22;16450;50.288;10.966;2024-03-08T00:55:20;0.40;99.90
29501;DHT22;16450;50.288;10.966;2024-03-08T00:58:22;0.40;99.90
29501;DHT22;16450;50.288;10.966;2024-03-08T01:01:25;0.30;99.90
29501;DHT22;16450;50.288;10.966;2024-03-08T01:04:28;0.30;99.90
29501;DHT22;16450;50.288;10.966;2024-03-08T01:07:34;0.30;99.90
29501;DHT22;16450;50.288;10.966;2024-03-08T01:10:37;0.30;99.90
29501;DHT22;16450;50.288;10.966;2024-03-08T01:13:39;0.30;99.90
29501;DHT22;16450;50.288;10.966;2024-03-08T01:16:41;0.20;99.90
29501;DHT22;16450;50.288;10.966;2024-03-08T01:19:43;0.20;99.90
29501;DHT22;16450;50.288;10.966;2024-03-08T01:22:46;0.20;99.90
29501;DHT22;16450;50.288;10.966;2024-03-08T01:25:48;0.20;99.90
29501;DHT22;16450;50.288;10.966;2024-03-08T01:28:58;0.20;99.90
29501;DHT22;16450;50.288;10.966;2024-03-08T01:32:00;0.10;99.90
29501;DHT22;16450;50.288;10.966;2024-03-08T01:35:04;0.10;99.90
29501;DHT22;16450;50.288;10.966;2024-03-08T01:38:06;0.10;99.90
29501;DHT22;16450;50.288;10.966;2024-03-08T01:41:07;0.10;99.90
29501;DHT22;16450;50.288;10.966;2024-03-08T01:44:10;0.10;99.90
29501;DHT22;16450;50.288;10.966;2024-03-08T01:47:12;0.10;99.90
29501;DHT22;16450;50.288;10.966;2024-03-08T01:50:14;0.10;99.90
29501;DHT22;16450;50.288;10.966;2024-03-08T01:53:18;0.00;99.90
29501;DHT22;16450;50.288;10.966;2024-03-08T01:56:21;0.00;99.90
29501;DHT22;16450;50.288;10.966;2024-03-08T01:59:23;0.10;99.90
29501;DHT22;16450;50.288;10.966;2024-03-08T02:02:25;0.00;99.90
29501;DHT22;16450;50.288;10.966;2024-03-08T02:05:28;0.10;99.90
29501;DHT22;16450;50.288;10.966;2024-03-08T02:08:30;0.00;99.90
29501;DHT22;16450;50.288;10.966;2024-03-08T02:11:34;0.00;99.90
29501;DHT22;16450;50.288;10.966;2024-03-08T02:14:37;0.00;99.90
29501;DHT22;16450;50.288;10.966;2024-03-08T02:17:41;0.10;99.90
29501;DHT22;16450;50.288;10.966;2024-03-08T02:20:47;0.00;99.90
29501;DHT22;16450;50.288;10.966;2024-03-08T02:23:49;0.00;99.90
29501;DHT22;16450;50.288;10.966;2024-03-08T02:26:53;0.00;99.90
29501;DHT22;16450;50.288;10.966;2024-03-08T02:29:56;0.00;99.90
29501;DHT22;16450;50.288;10.966;2024-03-08T02:32:58;0.00;99.90
29501;DHT22;16450;50.288;10.966;2024-03-08T02:36:00;-0.10;99.90
29501;DHT22;16450;50.288;10.966;2024-03-08T02:39:03;-0.10;99.90
29501;DHT22;16450;50.288;10.966;2024-03-08T02:42:05;-0.10;99.90
29501;DHT22;16450;50.288;10.966;2024-03-08T02:45:07;-0.10;99.90
29501;DHT22;16450;50.288;10.966;2024-03-08T02:48:12;-0.10;99.90
29501;DHT22;16450;50.288;10.966;2024-03-08T02:51:14;-0.10;99.90
29501;DHT22;16450;50.288;10.966;2024-03-08T02:54:18;-0.10;99.90
29501;DHT22;16450;50.288;10.966;2024-03-08T02:57:21;-0.20;99.90
29501;DHT22;16450;50.288;10.966;2024-03-08T03:00:23;-0.10;99.90
29501;DHT22;16450;50.288;10.966;2024-03-08T03:03:26;-0.20;99.90
29501;DHT22;16450;50.288;10.966;2024-03-08T03:06:28;-0.20;99.90
29501;DHT22;16450;50.288;10.966;2024-03-08T03:09:30;-0.10;99.90
29501;DHT22;16450;50.288;10.966;2024-03-08T03:12:34;-0.20;99.90
29501;DHT22;16450;50.288;10.966;2024-03-08T03:15:36;-0.20;99.90
29501;DHT22;16450;50.288;10.966;2024-03-08T03:18:38;-0.20;99.90
29501;DHT22;16450;50.288;10.966;2024-03-08T03:21:40;-0.20;99.90
29501;DHT22;16450;50.288;10.966;2024-03-08T03:24:45;-0.20;99.90
29501;DHT22;16450;50.288;10.966;2024-03-08T03:27:47;-0.20;99.90
29501;DHT22;16450;50.288;10.966;2024-03-08T03:30:49;-0.20;99.90
29501;DHT22;16450;50.288;10.966;2024-03-08T03:33:51;-0.20;99.90
29501;DHT22;16450;50.288;10.966;2024-03-08T03:36:53;-0.20;99.90
29501;DHT22;16450;50.288;10.966;2024-03-08T03:39:57;-0.20;99.90
29501;DHT22;16450;50.288;10.966;2024-03-08T03:42:59;-0.20;99.90
29501;DHT22;16450;50.288;10.966;2024-03-08T03:46:01;-0.30;99.90
29501;DHT22;16450;50.288;10.966;2024-03-08T03:49:03;-0.30;99.90
29501;DHT22;16450;50.288;10.966;2024-03-08T03:52:05;-0.30;99.90
29501;DHT22;16450;50.288;10.966;2024-03-08T03:55:08;-0.30;99.90
29501;DHT22;16450;50.288;10.966;2024-03-08T03:58:09;-0.30;99.90
29501;DHT22;16450;50.288;10.966;2024-03-08T04:01:13;-0.30;99.90
29501;DHT22;16450;50.288;10.966;2024-03-08T04:04:15;-0.30;99.90
29501;DHT22;16450;50.288;10.966;2024-03-08T04:07:16;-0.40;99.90
29501;DHT22;16450;50.288;10.966;2024-03-08T04:10:18;-0.40;99.90
29501;DHT22;16450;50.288;10.966;2024-03-08T04:13:21;-0.40;99.90
29501;DHT22;16450;50.288;10.966;2024-03-08T04:16:23;-0.40;99.90
29501;DHT22;16450;50.288;10.966;2024-03-08T04:19:27;-0.50;99.90
29501;DHT22;16450;50.288;10.966;2024-03-08T04:22:30;-0.40;99.90
29501;DHT22;16450;50.288;10.966;2024-03-08T04:25:32;-0.50;99.90
29501;DHT22;16450;50.288;10.966;2024-03-08T04:28:34;-0.50;99.90
29501;DHT22;16450;50.288;10.966;2024-03-08T04:31:38;-0.50;99.90
29501;DHT22;16450;50.288;10.966;2024-03-08T04:34:40;-0.50;99.90
29501;DHT22;16450;50.288;10.966;2024-03-08T04:37:47;-0.60;99.90
29501;DHT22;16450;50.288;10.966;2024-03-08T04:40:49;-0.60;99.90
29501;DHT22;16450;50.288;10.966;2024-03-08T04:43:51;-0.60;99.90
29501;DHT22;16450;50.288;10.966;2024-03-08T04:46:53;-0.60;99.90
29501;DHT22;16450;50.288;10.966;2024-03-08T04:49:55;-0.60;99.90
29501;DHT22;16450;50.288;10.966;2024-03-08T04:52:58;-0.60;99.90
29501;DHT22;16450;50.288;10.966;2024-03-08T04:56:00;-0.70;99.90
29501;DHT22;16450;50.288;10.966;2024-03-08T04:59:07;-0.70;99.90
29501;DHT22;16450;50.288;10.966;2024-03-08T05:02:10;-0.70;99.90
29501;DHT22;16450;50.288;10.966;2024-03-08T05:05:13;-0.70;99.90
29501;DHT22;16450;50.288;10.966;2024-03-08T05:08:15;-0.70;99.90
29501;DHT22;16450;50.288;10.966;2024-03-08T05:11:20;-0.70;99.90
29501;DHT22;16450;50.288;10.966;2024-03-08T05:14:22;-0.70;99.90
29501;DHT22;16450;50.288;10.966;2024-03-08T05:17:24;-0.70;99.90
29501;DHT22;16450;50.288;10.966;2024-03-08T05:20:27;-0.70;99.90
29501;DHT22;16450;50.288;10.966;2024-03-08T05:23:29;-0.70;99.90
29501;DHT22;16450;50.288;10.966;2024-03-08T05:26:31;-0.70;99.90
29501;DHT22;16450;50.288;10.966;2024-03-08T05:29:34;-0.70;99.90
29501;DHT22;16450;50.288;10.966;2024-03-08T05:32:36;-0.70;99.90
29501;DHT22;16450;50.288;10.966;2024-03-08T05:35:39;-0.70;99.90
29501;DHT22;16450;50.288;10.966;2024-03-08T05:38:45;-0.80;99.90
29501;DHT22;16450;50.288;10.966;2024-03-08T05:41:47;-0.70;99.90
29501;DHT22;16450;50.288;10.966;2024-03-08T05:44:49;-0.80;99.90
29501;DHT22;16450;50.288;10.966;2024-03-08T05:47:52;-0.70;99.90
29501;DHT22;16450;50.288;10.966;2024-03-08T05:50:54;-0.70;99.90
29501;DHT22;16450;50.288;10.966;2024-03-08T05:53:56;-0.70;99.90
29501;DHT22;16450;50.288;10.966;2024-03-08T05:56:58;-0.70;99.90
29501;DHT22;16450;50.288;10.966;2024-03-08T06:00:00;-0.70;99.90
29501;DHT22;16450;50.288;10.966;2024-03-08T06:03:05;-0.70;99.90
29501;DHT22;16450;50.288;10.966;2024-03-08T06:06:07;-0.60;99.90
29501;DHT22;16450;50.288;10.966;2024-03-08T06:09:09;-0.70;99.90
29501;DHT22;16450;50.288;10.966;2024-03-08T06:12:14;-0.70;99.90
29501;DHT22;16450;50.288;10.966;2024-03-08T06:15:20;-0.70;99.90
29501;DHT22;16450;50.288;10.966;2024-03-08T06:18:22;-0.70;99.90
29501;DHT22;16450;50.288;10.966;2024-03-08T06:21:25;-0.70;99.90
29501;DHT22;16450;50.288;10.966;2024-03-08T06:24:30;-0.60;99.90
29501;DHT22;16450;50.288;10.966;2024-03-08T06:27:32;-0.60;99.90
29501;DHT22;16450;50.288;10.966;2024-03-08T06:30:35;-0.60;99.90
29501;DHT22;16450;50.288;10.966;2024-03-08T06:33:37;-0.50;99.90
29501;DHT22;16450;50.288;10.966;2024-03-08T06:36:39;-0.50;99.90
29501;DHT22;16450;50.288;10.966;2024-03-08T06:39:41;-0.50;99.90
29501;DHT22;16450;50.288;10.966;2024-03-08T06:42:43;-0.40;99.90
29501;DHT22;16450;50.288;10.966;2024-03-08T06:45:45;-0.40;99.90
29501;DHT22;16450;50.288;10.966;2024-03-08T06:48:50;-0.40;99.90
29501;DHT22;16450;50.288;10.966;2024-03-08T06:51:52;-0.30;99.90
29501;DHT22;16450;50.288;10.966;2024-03-08T06:54:55;-0.20;99.90
29501;DHT22;16450;50.288;10.966;2024-03-08T06:57:59;-0.20;99.90
29501;DHT22;16450;50.288;10.966;2024-03-08T07:01:00;-0.20;99.90
29501;DHT22;16450;50.288;10.966;2024-03-08T07:04:06;-0.10;99.90
29501;DHT22;16450;50.288;10.966;2024-03-08T07:07:08;0.10;99.90
29501;DHT22;16450;50.288;10.966;2024-03-08T07:10:11;0.10;99.90
29501;DHT22;16450;50.288;10.966;2024-03-08T07:13:16;0.10;99.90
29501;DHT22;16450;50.288;10.966;2024-03-08T07:16:18;0.20;99.90
29501;DHT22;16450;50.288;10.966;2024-03-08T07:19:20;0.20;99.90
29501;DHT22;16450;50.288;10.966;2024-03-08T07:22:23;0.30;99.90
29501;DHT22;16450;50.288;10.966;2024-03-08T07:25:25;0.40;99.90
29501;DHT22;16450;50.288;10.966;2024-03-08T07:28:30;0.40;99.90
29501;DHT22;16450;50.288;10.966;2024-03-08T07:31:32;0.50;99.90
29501;DHT22;16450;50.288;10.966;2024-03-08T07:34:43;0.60;99.90
29501;DHT22;16450;50.288;10.966;2024-03-08T07:37:45;0.70;99.90
29501;DHT22;16450;50.288;10.966;2024-03-08T07:40:47;0.80;99.90
29501;DHT22;16450;50.288;10.966;2024-03-08T07:43:49;0.80;99.90
29501;DHT22;16450;50.288;10.966;2024-03-08T07:46:51;0.90;99.90
29501;DHT22;16450;50.288;10.966;2024-03-08T07:49:57;1.00;99.90
29501;DHT22;16450;50.288;10.966;2024-03-08T07:53:02;1.00;99.90
29501;DHT22;16450;50.288;10.966;2024-03-08T07:56:05;1.10;99.90
29501;DHT22;16450;50.288;10.966;2024-03-08T07:59:07;1.20;99.90
29501;DHT22;16450;50.288;10.966;2024-03-08T08:02:09;1.30;99.90
29501;DHT22;16450;50.288;10.966;2024-03-08T08:05:11;1.40;99.90
29501;DHT22;16450;50.288;10.966;2024-03-08T08:08:13;1.50;99.90
29501;DHT22;16450;50.288;10.966;2024-03-08T08:11:15;1.70;99.90
29501;DHT22;16450;50.288;10.966;2024-03-08T08:14:17;1.80;99.90
29501;DHT22;16450;50.288;10.966;2024-03-08T08:17:19;1.90;99.90
29501;DHT22;16450;50.288;10.966;2024-03-08T08:20:22;2.10;99.90
29501;DHT22;16450;50.288;10.966;2024-03-08T08:23:24;2.30;99.90
29501;DHT22;16450;50.288;10.966;2024-03-08T08:26:26;2.40;99.90
29501;DHT22;16450;50.288;10.966;2024-03-08T08:29:28;2.50;99.90
29501;DHT22;16450;50.288;10.966;2024-03-08T08:32:30;2.60;99.90
29501;DHT22;16450;50.288;10.966;2024-03-08T08:35:32;2.70;99.90
29501;DHT22;16450;50.288;10.966;2024-03-08T08:38:34;2.70;99.90
29501;DHT22;16450;50.288;10.966;2024-03-08T08:41:36;2.80;99.90
29501;DHT22;16450;50.288;10.966;2024-03-08T08:44:38;2.90;99.90
29501;DHT22;16450;50.288;10.966;2024-03-08T08:47:40;2.90;99.90
29501;DHT22;16450;50.288;10.966;2024-03-08T08:50:44;3.00;99.90
29501;DHT22;16450;50.288;10.966;2024-03-08T08:53:46;3.10;99.90
29501;DHT22;16450;50.288;10.966;2024-03-08T08:56:49;3.20;99.90
29501;DHT22;16450;50.288;10.966;2024-03-08T08:59:51;3.20;99.90
29501;DHT22;16450;50.288;10.966;2024-03-08T09:02:52;3.30;99.90
29501;DHT22;16450;50.288;10.966;2024-03-08T09:05:56;3.40;99.90
29501;DHT22;16450;50.288;10.966;2024-03-08T09:08:58;3.50;99.90
29501;DHT22;16450;50.288;10.966;2024-03-08T09:12:02;3.60;99.90
29501;DHT22;16450;50.288;10.966;2024-03-08T09:15:05;3.80;99.90
29501;DHT22;16450;50.288;10.966;2024-03-08T09:18:12;4.00;99.90
29501;DHT22;16450;50.288;10.966;2024-03-08T09:21:15;4.30;99.90
29501;DHT22;16450;50.288;10.966;2024-03-08T09:24:17;4.70;99.90
29501;DHT22;16450;50.288;10.966;2024-03-08T09:27:18;5.10;99.90
29501;DHT22;16450;50.288;10.966;2024-03-08T09:30:21;5.50;99.90
29501;DHT22;16450;50.288;10.966;2024-03-08T09:33:23;5.90;99.90
29501;DHT22;16450;50.288;10.966;2024-03-08T09:36:25;6.30;99.90
29501;DHT22;16450;50.288;10.966;2024-03-08T09:39:26;6.60;99.90
29501;DHT22;16450;50.288;10.966;2024-03-08T09:42:31;6.90;99.90
29501;DHT22;16450;50.288;10.966;2024-03-08T09:45:36;7.20;99.90
29501;DHT22;16450;50.288;10.966;2024-03-08T09:48:38;7.40;99.90
29501;DHT22;16450;50.288;10.966;2024-03-08T09:51:43;7.60;99.90
29501;DHT22;16450;50.288;10.966;2024-03-08T09:54:45;7.70;99.90
29501;DHT22;16450;50.288;10.966;2024-03-08T09:57:51;7.90;99.90
29501;DHT22;16450;50.288;10.966;2024-03-08T10:01:12;8.00;99.90
29501;DHT22;16450;50.288;10.966;2024-03-08T10:04:14;8.00;99.90
29501;DHT22;16450;50.288;10.966;2024-03-08T10:07:15;8.10;99.90
29501;DHT22;16450;50.288;10.966;2024-03-08T10:10:18;8.20;99.90
29501;DHT22;16450;50.288;10.966;2024-03-08T10:13:20;8.30;99.90
29501;DHT22;16450;50.288;10.966;2024-03-08T10:16:22;8.40;99.90
29501;DHT22;16450;50.288;10.966;2024-03-08T10:19:26;8.40;99.90
29501;DHT22;16450;50.288;10.966;2024-03-08T10:22:29;8.40;99.90
29501;DHT22;16450;50.288;10.966;2024-03-08T10:25:32;8.50;99.90
29501;DHT22;16450;50.288;10.966;2024-03-08T10:28:34;8.40;99.90
29501;DHT22;16450;50.288;10.966;2024-03-08T10:31:37;8.50;99.90
29501;DHT22;16450;50.288;10.966;2024-03-08T10:34:41;8.60;99.90
29501;DHT22;16450;50.288;10.966;2024-03-08T10:37:48;8.60;99.90
29501;DHT22;16450;50.288;10.966;2024-03-08T10:41:06;8.60;99.90
29501;DHT22;16450;50.288;10.966;2024-03-08T10:44:32;8.60;99.90
29501;DHT22;16450;50.288;10.966;2024-03-08T10:47:41;8.60;99.90
29501;DHT22;16450;50.288;10.966;2024-03-08T10:50:44;8.60;99.90
29501;DHT22;16450;50.288;10.966;2024-03-08T10:53:49;8.60;99.90
29501;DHT22;16450;50.288;10.966;2024-03-08T10:56:52;8.60;99.90
29501;DHT22;16450;50.288;10.966;2024-03-08T10:59:56;8.70;99.90
29501;DHT22;16450;50.288;10.966;2024-03-08T11:03:00;8.60;99.90
29501;DHT22;16450;50.288;10.966;2024-03-08T11:06:02;8.70;99.90
29501;DHT22;16450;50.288;10.966;2024-03-08T11:09:30;8.70;99.90
29501;DHT22;16450;50.288;10.966;2024-03-08T11:12:38;8.70;99.90
29501;DHT22;16450;50.288;10.966;2024-03-08T11:15:42;8.70;99.90
29501;DHT22;16450;50.288;10.966;2024-03-08T11:18:45;8.80;99.90
29501;DHT22;16450;50.288;10.966;2024-03-08T11:22:00;8.80;99.90
29501;DHT22;16450;50.288;10.966;2024-03-08T11:25:03;8.80;99.90
29501;DHT22;16450;50.288;10.966;2024-03-08T11:28:16;8.80;99.90
29501;DHT22;16450;50.288;10.966;2024-03-08T11:31:24;8.90;99.90
29501;DHT22;16450;50.288;10.966;2024-03-08T11:34:27;8.90;99.90
29501;DHT22;16450;50.288;10.966;2024-03-08T11:37:29;9.00;99.90
29501;DHT22;16450;50.288;10.966;2024-03-08T11:40:33;9.00;99.90
29501;DHT22;16450;50.288;10.966;2024-03-08T11:43:36;9.00;99.90
29501;DHT22;16450;50.288;10.966;2024-03-08T11:46:38;9.10;99.90
29501;DHT22;16450;50.288;10.966;2024-03-08T11:49:45;9.10;99.90
29501;DHT22;16450;50.288;10.966;2024-03-08T11:52:50;9.20;99.90
29501;DHT22;16450;50.288;10.966;2024-03-08T11:55:52;9.20;99.90
29501;DHT22;16450;50.288;10.966;2024-03-08T11:58:55;9.30;99.90
29501;DHT22;16450;50.288;10.966;2024-03-08T12:02:03;9.30;99.90
29501;DHT22;16450;50.288;10.966;2024-03-08T12:05:05;9.30;99.90
29501;DHT22;16450;50.288;10.966;2024-03-08T12:08:11;9.40;99.90
29501;DHT22;16450;50.288;10.966;2024-03-08T12:11:14;9.40;99.90
29501;DHT22;16450;50.288;10.966;2024-03-08T12:14:17;9.40;99.90
29501;DHT22;16450;50.288;10.966;2024-03-08T12:17:19;9.40;99.90
29501;DHT22;16450;50.288;10.966;2024-03-08T12:20:23;9.50;99.90
29501;DHT22;16450;50.288;10.966;2024-03-08T12:23:28;9.50;99.90
29501;DHT22;16450;50.288;10.966;2024-03-08T12:26:30;9.60;99.90
29501;DHT22;16450;50.288;10.966;2024-03-08T12:29:34;9.60;99.90
29501;DHT22;16450;50.288;10.966;2024-03-08T12:32:56;9.70;99.90
29501;DHT22;16450;50.288;10.966;2024-03-08T12:36:00;9.80;99.90
29501;DHT22;16450;50.288;10.966;2024-03-08T12:39:02;9.80;99.90
29501;DHT22;16450;50.288;10.966;2024-03-08T12:42:05;9.90;99.90
29501;DHT22;16450;50.288;10.966;2024-03-08T12:45:08;9.90;99.90
29501;DHT22;16450;50.288;10.966;2024-03-08T12:48:14;10.00;99.90
29501;DHT22;16450;50.288;10.966;2024-03-08T12:51:20;10.00;99.80
29501;DHT22;16450;50.288;10.966;2024-03-08T12:54:22;10.10;99.90
29501;DHT22;16450;50.288;10.966;2024-03-08T12:57:25;10.10;99.90
29501;DHT22;16450;50.288;10.966;2024-03-08T13:00:30;10.20;99.90
29501;DHT22;16450;50.288;10.966;2024-03-08T13:03:31;10.20;99.90
29501;DHT22;16450;50.288;10.966;2024-03-08T13:06:36;10.30;99.80
29501;DHT22;16450;50.288;10.966;2024-03-08T13:09:38;10.40;99.80
29501;DHT22;16450;50.288;10.966;2024-03-08T13:12:41;10.40;99.60
29501;DHT22;16450;50.288;10.966;2024-03-08T13:15:43;10.50;99.20
29501;DHT22;16450;50.288;10.966;2024-03-08T13:18:48;10.50;99.00
29501;DHT22;16450;50.288;10.966;2024-03-08T13:21:54;10.60;98.10
29501;DHT22;16450;50.288;10.966;2024-03-08T13:24:56;10.70;98.80
29501;DHT22;16450;50.288;10.966;2024-03-08T13:27:58;10.70;98.30
29501;DHT22;16450;50.288;10.966;2024-03-08T13:31:04;10.70;97.80
29501;DHT22;16450;50.288;10.966;2024-03-08T13:34:10;10.80;97.50
29501;DHT22;16450;50.288;10.966;2024-03-08T13:37:13;10.80;97.80
29501;DHT22;16450;50.288;10.966;2024-03-08T13:40:17;10.90;97.30
29501;DHT22;16450;50.288;10.966;2024-03-08T13:43:22;10.90;97.40
29501;DHT22;16450;50.288;10.966;2024-03-08T13:46:24;10.90;97.40
29501;DHT22;16450;50.288;10.966;2024-03-08T13:49:26;11.10;97.50
29501;DHT22;16450;50.288;10.966;2024-03-08T13:52:29;11.10;97.30
29501;DHT22;16450;50.288;10.966;2024-03-08T13:55:31;11.10;97.00
29501;DHT22;16450;50.288;10.966;2024-03-08T13:58:33;11.20;96.60
29501;DHT22;16450;50.288;10.966;2024-03-08T14:01:34;11.20;96.50
29501;DHT22;16450;50.288;10.966;2024-03-08T14:04:37;11.30;96.30
29501;DHT22;16450;50.288;10.966;2024-03-08T14:07:39;11.30;96.20
29501;DHT22;16450;50.288;10.966;2024-03-08T14:10:41;11.30;96.00
29501;DHT22;16450;50.288;10.966;2024-03-08T14:13:44;11.30;96.00
29501;DHT22;16450;50.288;10.966;2024-03-08T14:16:48;11.30;95.80
29501;DHT22;16450;50.288;10.966;2024-03-08T14:19:50;11.30;95.10
29501;DHT22;16450;50.288;10.966;2024-03-08T14:22:53;11.30;95.40
29501;DHT22;16450;50.288;10.966;2024-03-08T14:25:55;11.30;94.70
29501;DHT22;16450;50.288;10.966;2024-03-08T14:28:57;11.20;94.70
29501;DHT22;16450;50.288;10.966;2024-03-08T14:31:59;11.10;94.40
29501;DHT22;16450;50.288;10.966;2024-03-08T14:35:02;11.10;94.50
29501;DHT22;16450;50.288;10.966;2024-03-08T14:38:04;11.10;94.30
29501;DHT22;16450;50.288;10.966;2024-03-08T14:41:09;11.10;94.00
29501;DHT22;16450;50.288;10.966;2024-03-08T14:44:12;10.90;93.80
29501;DHT22;16450;50.288;10.966;2024-03-08T14:47:14;10.90;93.50
29501;DHT22;16450;50.288;10.966;2024-03-08T14:50:17;10.90;93.40
29501;DHT22;16450;50.288;10.966;2024-03-08T14:53:19;10.80;93.10
29501;DHT22;16450;50.288;10.966;2024-03-08T14:56:21;10.80;93.10
29501;DHT22;16450;50.288;10.966;2024-03-08T14:59:24;10.70;93.00
29501;DHT22;16450;50.288;10.966;2024-03-08T15:02:29;10.70;92.80
29501;DHT22;16450;50.288;10.966;2024-03-08T15:05:31;10.70;92.60
29501;DHT22;16450;50.288;10.966;2024-03-08T15:08:35;10.70;92.80
29501;DHT22;16450;50.288;10.966;2024-03-08T15:11:38;10.60;92.50
29501;DHT22;16450;50.288;10.966;2024-03-08T15:14:41;10.60;92.50
29501;DHT22;16450;50.288;10.966;2024-03-08T15:17:45;10.50;92.70
29501;DHT22;16450;50.288;10.966;2024-03-08T15:20:49;10.50;92.60
29501;DHT22;16450;50.288;10.966;2024-03-08T15:23:50;10.50;92.30
29501;DHT22;16450;50.288;10.966;2024-03-08T15:26:54;10.40;91.70
29501;DHT22;16450;50.288;10.966;2024-03-08T15:29:56;10.40;91.40
29501;DHT22;16450;50.288;10.966;2024-03-08T15:33:01;10.20;91.60
29501;DHT22;16450;50.288;10.966;2024-03-08T15:36:05;10.30;91.60
29501;DHT22;16450;50.288;10.966;2024-03-08T15:39:11;10.30;91.20
29501;DHT22;16450;50.288;10.966;2024-03-08T15:42:13;10.20;91.40
29501;DHT22;16450;50.288;10.966;2024-03-08T15:45:16;10.20;91.30
29501;DHT22;16450;50.288;10.966;2024-03-08T15:48:18;10.10;90.60
29501;DHT22;16450;50.288;10.966;2024-03-08T15:51:19;10.10;90.80
29501;DHT22;16450;50.288;10.966;2024-03-08T15:54:21;10.00;90.60
29501;DHT22;16450;50.288;10.966;2024-03-08T15:57:23;10.00;90.90
29501;DHT22;16450;50.288;10.966;2024-03-08T16:00:26;9.90;90.90
29501;DHT22;16450;50.288;10.966;2024-03-08T16:03:39;9.90;90.90
29501;DHT22;16450;50.288;10.966;2024-03-08T16:06:41;9.80;90.90
29501;DHT22;16450;50.288;10.966;2024-03-08T16:09:43;9.80;90.90
29501;DHT22;16450;50.288;10.966;2024-03-08T16:12:44;9.70;90.80
29501;DHT22;16450;50.288;10.966;2024-03-08T16:15:47;9.70;90.90
29501;DHT22;16450;50.288;10.966;2024-03-08T16:18:52;9.60;90.70
29501;DHT22;16450;50.288;10.966;2024-03-08T16:21:54;9.60;90.70
29501;DHT22;16450;50.288;10.966;2024-03-08T16:24:58;9.50;90.70
29501;DHT22;16450;50.288;10.966;2024-03-08T16:28:00;9.50;90.40
29501;DHT22;16450;50.288;10.966;2024-03-08T16:31:02;9.40;90.50
29501;DHT22;16450;50.288;10.966;2024-03-08T16:34:06;9.40;90.60
29501;DHT22;16450;50.288;10.966;2024-03-08T16:37:10;9.30;90.60
29501;DHT22;16450;50.288;10.966;2024-03-08T16:40:12;9.30;90.60
29501;DHT22;16450;50.288;10.966;2024-03-08T16:43:19;9.20;90.50
29501;DHT22;16450;50.288;10.966;2024-03-08T16:46:21;9.20;90.60
29501;DHT22;16450;50.288;10.966;2024-03-08T16:49:23;9.10;90.80
29501;DHT22;16450;50.288;10.966;2024-03-08T16:52:25;9.10;90.60
29501;DHT22;16450;50.288;10.966;2024-03-08T16:55:28;9.00;90.60
29501;DHT22;16450;50.288;10.966;2024-03-08T16:58:32;9.00;90.60
29501;DHT22;16450;50.288;10.966;2024-03-08T17:01:35;8.90;90.60
29501;DHT22;16450;50.288;10.966;2024-03-08T17:04:40;8.80;90.70
29501;DHT22;16450;50.288;10.966;2024-03-08T17:07:44;8.80;90.70
29501;DHT22;16450;50.288;10.966;2024-03-08T17:10:49;8.70;90.50
29501;DHT22;16450;50.288;10.966;2024-03-08T17:13:52;8.70;90.70
29501;DHT22;16450;50.288;10.966;2024-03-08T17:16:53;8.60;90.60
29501;DHT22;16450;50.288;10.966;2024-03-08T17:19:56;8.50;90.60
29501;DHT22;16450;50.288;10.966;2024-03-08T17:22:58;8.50;90.70
29501;DHT22;16450;50.288;10.966;2024-03-08T17:26:04;8.30;90.70
29501;DHT22;16450;50.288;10.966;2024-03-08T17:29:09;8.30;90.80
29501;DHT22;16450;50.288;10.966;2024-03-08T17:32:11;8.20;90.80
29501;DHT22;16450;50.288;10.966;2024-03-08T17:35:13;8.10;90.80
29501;DHT22;16450;50.288;10.966;2024-03-08T17:38:19;8.00;90.90
29501;DHT22;16450;50.288;10.966;2024-03-08T17:41:23;8.00;91.00
29501;DHT22;16450;50.288;10.966;2024-03-08T17:44:27;7.90;91.50
29501;DHT22;16450;50.288;10.966;2024-03-08T17:47:33;7.80;91.60
29501;DHT22;16450;50.288;10.966;2024-03-08T17:50:35;7.80;91.80
29501;DHT22;16450;50.288;10.966;2024-03-08T17:53:37;7.70;91.80
29501;DHT22;16450;50.288;10.966;2024-03-08T17:56:40;7.60;91.80
29501;DHT22;16450;50.288;10.966;2024-03-08T17:59:42;7.50;91.90
29501;DHT22;16450;50.288;10.966;2024-03-08T18:02:46;7.50;92.00
29501;DHT22;16450;50.288;10.966;2024-03-08T18:05:51;7.40;92.10
29501;DHT22;16450;50.288;10.966;2024-03-08T18:08:53;7.30;92.20
29501;DHT22;16450;50.288;10.966;2024-03-08T18:11:55;7.30;92.30
29501;DHT22;16450;50.288;10.966;2024-03-08T18:15:00;7.20;92.40
29501;DHT22;16450;50.288;10.966;2024-03-08T18:18:03;7.10;92.50
29501;DHT22;16450;50.288;10.966;2024-03-08T18:21:06;7.10;92.60
29501;DHT22;16450;50.288;10.966;2024-03-08T18:24:08;7.00;92.70
29501;DHT22;16450;50.288;10.966;2024-03-08T18:27:10;7.00;92.80
29501;DHT22;16450;50.288;10.966;2024-03-08T18:30:12;6.90;92.80
29501;DHT22;16450;50.288;10.966;2024-03-08T18:33:17;6.90;93.00
29501;DHT22;16450;50.288;10.966;2024-03-08T18:36:19;6.80;93.10
29501;DHT22;16450;50.288;10.966;2024-03-08T18:39:21;6.80;93.20
29501;DHT22;16450;50.288;10.966;2024-03-08T18:42:28;6.70;93.30
29501;DHT22;16450;50.288;10.966;2024-03-08T18:45:31;6.70;93.30
29501;DHT22;16450;50.288;10.966;2024-03-08T18:48:35;6.60;93.40
29501;DHT22;16450;50.288;10.966;2024-03-08T18:51:38;6.60;93.50
29501;DHT22;16450;50.288;10.966;2024-03-08T18:54:40;6.50;93.60
29501;DHT22;16450;50.288;10.966;2024-03-08T18:57:43;6.50;93.80
29501;DHT22;16450;50.288;10.966;2024-03-08T19:00:45;6.40;93.80
29501;DHT22;16450;50.288;10.966;2024-03-08T19:03:51;6.40;94.00
29501;DHT22;16450;50.288;10.966;2024-03-08T19:06:53;6.40;94.00
29501;DHT22;16450;50.288;10.966;2024-03-08T19:09:55;6.30;94.00